Aviation Digital Data Service (ADDS)

Output produced by METARs form (1229 UTC 26 March 2019)
found at http://www.aviationweather.gov/metar/data/
 
METAR text: FNHU 261200Z 03007KT 7000 -RA FEW009 BKN060 18/15 Q1023
Conditions at: FNHU (HUAMBO/NOVA LISB, AO) observed 1200 UTC 26 March 2019
Temperature: 18.0°C (64°F)
Dewpoint: 15.0°C (59°F) [RH = 83%]
Pressure (altimeter): 30.21 inches Hg (1023.0 mb)
Winds: from the NNE (30 degrees) at 8 MPH (7 knots; 3.6 m/s)
Visibility: 4 miles ( 7 km)
Ceiling: 6000 feet AGL
Clouds: few clouds at 900 feet AGL
broken clouds at 6000 feet AGL
Weather: -RA  (light rain)

METAR text: FNHU 261100Z 35009KT 8000 VCSH SCT009 BKN070 18/15 Q1024
Conditions at: FNHU (HUAMBO/NOVA LISB, AO) observed 1100 UTC 26 March 2019
Temperature: 18.0°C (64°F)
Dewpoint: 15.0°C (59°F) [RH = 83%]
Pressure (altimeter): 30.24 inches Hg (1024.0 mb)
Winds: from the N (350 degrees) at 10 MPH (9 knots; 4.6 m/s)
Visibility: 5 miles ( 8 km)
Ceiling: 7000 feet AGL
Clouds: scattered clouds at 900 feet AGL
broken clouds at 7000 feet AGL
Weather: VCSH  (showers in vicinity)

METAR text: FNHU 261000Z 04011KT 7000 VC RA SCT008 BKN070 19/16 Q1025
Conditions at: FNHU (HUAMBO/NOVA LISB, AO) observed 1000 UTC 26 March 2019
Temperature: 19.0°C (66°F)
Dewpoint: 16.0°C (61°F) [RH = 83%]
Pressure (altimeter): 30.27 inches Hg (1025.0 mb)
Winds: from the NE (40 degrees) at 13 MPH (11 knots; 5.7 m/s)
Visibility: 4 miles ( 7 km)
Ceiling: 7000 feet AGL
Clouds: scattered clouds at 800 feet AGL
broken clouds at 7000 feet AGL
Weather: VC RA  (vicinity, moderate rain)

METAR text: FNHU 260900Z 33007KT 9000 VCSH SCT008 BKN080 21/17 Q1025
Conditions at: FNHU (HUAMBO/NOVA LISB, AO) observed 0900 UTC 26 March 2019
Temperature: 21.0°C (70°F)
Dewpoint: 17.0°C (63°F) [RH = 78%]
Pressure (altimeter): 30.27 inches Hg (1025.0 mb)
Winds: from the NNW (330 degrees) at 8 MPH (7 knots; 3.6 m/s)
Visibility: 6 miles ( 9 km)
Ceiling: 8000 feet AGL
Clouds: scattered clouds at 800 feet AGL
broken clouds at 8000 feet AGL
Weather: VCSH  (showers in vicinity)

METAR text: FNHU 260800Z 36004KT 9999 SCT007 BKN070 18/17 Q1025
Conditions at: FNHU (HUAMBO/NOVA LISB, AO) observed 0800 UTC 26 March 2019
Temperature: 18.0°C (64°F)
Dewpoint: 17.0°C (63°F) [RH = 94%]
Pressure (altimeter): 30.27 inches Hg (1025.0 mb)
Winds: from the N (360 degrees) at 5 MPH (4 knots; 2.1 m/s)
Visibility: 6 or more miles (10+ km)
Ceiling: 7000 feet AGL
Clouds: scattered clouds at 700 feet AGL
broken clouds at 7000 feet AGL
Weather: no significant weather observed at this time

METAR text: FNHU 260700Z 35005KT 6000 RA SCT006 BKN060 18/17 Q1024
Conditions at: FNHU (HUAMBO/NOVA LISB, AO) observed 0700 UTC 26 March 2019
Temperature: 18.0°C (64°F)
Dewpoint: 17.0°C (63°F) [RH = 94%]
Pressure (altimeter): 30.24 inches Hg (1024.0 mb)
Winds: from the N (350 degrees) at 6 MPH (5 knots; 2.6 m/s)
Visibility: 4 miles ( 6 km)
Ceiling: 6000 feet AGL
Clouds: scattered clouds at 600 feet AGL
broken clouds at 6000 feet AGL
Weather: RA  (moderate rain)

METAR text: FNHU 260500Z 00000KT 9999 SCT006 BKN060 17/15 Q1022
Conditions at: FNHU (HUAMBO/NOVA LISB, AO) observed 0500 UTC 26 March 2019
Temperature: 17.0°C (63°F)
Dewpoint: 15.0°C (59°F) [RH = 88%]
Pressure (altimeter): 30.18 inches Hg (1022.0 mb)
Winds: calm
Visibility: 6 or more miles (10+ km)
Ceiling: 6000 feet AGL
Clouds: scattered clouds at 600 feet AGL
broken clouds at 6000 feet AGL
Weather: no significant weather observed at this time

METAR text: FNHU 251600Z 10006KT 9999 FEW014 SCT080 26/13 Q1018
Conditions at: FNHU (HUAMBO/NOVA LISB, AO) observed 1600 UTC 25 March 2019
Temperature: 26.0°C (79°F)
Dewpoint: 13.0°C (55°F) [RH = 45%]
Pressure (altimeter): 30.06 inches Hg (1018.0 mb)
Winds: from the E (100 degrees) at 7 MPH (6 knots; 3.1 m/s)
Visibility: 6 or more miles (10+ km)
Ceiling: at least 12,000 feet AGL
Clouds: few clouds at 1400 feet AGL
scattered clouds at 8000 feet AGL
Weather: no significant weather observed at this time

METAR text: FNHU 251500Z 13010KT 9999 SCT015 28/13 Q1018
Conditions at: FNHU (HUAMBO/NOVA LISB, AO) observed 1500 UTC 25 March 2019
Temperature: 28.0°C (82°F)
Dewpoint: 13.0°C (55°F) [RH = 40%]
Pressure (altimeter): 30.06 inches Hg (1018.0 mb)
Winds: from the SE (130 degrees) at 12 MPH (10 knots; 5.1 m/s)
Visibility: 6 or more miles (10+ km)
Ceiling: at least 12,000 feet AGL
Clouds: scattered clouds at 1500 feet AGL
Weather: no significant weather observed at this time

METAR text: FNHU 251400Z 10007KT 8000 VCSH SCT015 27/14 Q1019
Conditions at: FNHU (HUAMBO/NOVA LISB, AO) observed 1400 UTC 25 March 2019
Temperature: 27.0°C (81°F)
Dewpoint: 14.0°C (57°F) [RH = 45%]
Pressure (altimeter): 30.09 inches Hg (1019.0 mb)
Winds: from the E (100 degrees) at 8 MPH (7 knots; 3.6 m/s)
Visibility: 5 miles ( 8 km)
Ceiling: at least 12,000 feet AGL
Clouds: scattered clouds at 1500 feet AGL
Weather: VCSH  (showers in vicinity)

METAR text: FNHU 251300Z 06008KT 9999 SCT015 27/14 Q1019
Conditions at: FNHU (HUAMBO/NOVA LISB, AO) observed 1300 UTC 25 March 2019
Temperature: 27.0°C (81°F)
Dewpoint: 14.0°C (57°F) [RH = 45%]
Pressure (altimeter): 30.09 inches Hg (1019.0 mb)
Winds: from the ENE (60 degrees) at 9 MPH (8 knots; 4.1 m/s)
Visibility: 6 or more miles (10+ km)
Ceiling: at least 12,000 feet AGL
Clouds: scattered clouds at 1500 feet AGL
Weather: no significant weather observed at this time

METAR text: FNHU 251000Z 09005KT 9999 SCT013 26/16 Q1023
Conditions at: FNHU (HUAMBO/NOVA LISB, AO) observed 1000 UTC 25 March 2019
Temperature: 26.0°C (79°F)
Dewpoint: 16.0°C (61°F) [RH = 54%]
Pressure (altimeter): 30.21 inches Hg (1023.0 mb)
Winds: from the E (90 degrees) at 6 MPH (5 knots; 2.6 m/s)
Visibility: 6 or more miles (10+ km)
Ceiling: at least 12,000 feet AGL
Clouds: scattered clouds at 1300 feet AGL
Weather: no significant weather observed at this time

METAR text: FNHU 250900Z 19005KT 9999 FEW012 22/18 Q1023
Conditions at: FNHU (HUAMBO/NOVA LISB, AO) observed 0900 UTC 25 March 2019
Temperature: 22.0°C (72°F)
Dewpoint: 18.0°C (64°F) [RH = 78%]
Pressure (altimeter): 30.21 inches Hg (1023.0 mb)
Winds: from the S (190 degrees) at 6 MPH (5 knots; 2.6 m/s)
Visibility: 6 or more miles (10+ km)
Ceiling: at least 12,000 feet AGL
Clouds: few clouds at 1200 feet AGL
Weather: no significant weather observed at this time

METAR text: FNHU 250800Z 19004KT CAVOK 23/18 Q1023
Conditions at: FNHU (HUAMBO/NOVA LISB, AO) observed 0800 UTC 25 March 2019
Temperature: 23.0°C (73°F)
Dewpoint: 18.0°C (64°F) [RH = 73%]
Pressure (altimeter): 30.21 inches Hg (1023.0 mb)
Winds: from the S (190 degrees) at 5 MPH (4 knots; 2.1 m/s)
Visibility: 6 or more miles (10+ km)
Ceiling: ceiling and visibility are OK
Clouds: unknown
Weather: no significant weather observed at this time

METAR text: FNHU 250600Z 00000KT CAVOK 18/15 Q1022
Conditions at: FNHU (HUAMBO/NOVA LISB, AO) observed 0600 UTC 25 March 2019
Temperature: 18.0°C (64°F)
Dewpoint: 15.0°C (59°F) [RH = 83%]
Pressure (altimeter): 30.18 inches Hg (1022.0 mb)
Winds: calm
Visibility: 6 or more miles (10+ km)
Ceiling: ceiling and visibility are OK
Clouds: unknown
Weather: no significant weather observed at this time

METAR text: FNHU 250500Z VRB02KT CAVOK 16/15 Q1021
Conditions at: FNHU (HUAMBO/NOVA LISB, AO) observed 0500 UTC 25 March 2019
Temperature: 16.0°C (61°F)
Dewpoint: 15.0°C (59°F) [RH = 94%]
Pressure (altimeter): 30.15 inches Hg (1021.0 mb)
Winds: variable direction winds at 2 MPH (2 knots; 1.0 m/s)
Visibility: 6 or more miles (10+ km)
Ceiling: ceiling and visibility are OK
Clouds: unknown
Weather: no significant weather observed at this time

Forecast for: FNHU (HUAMBO/NOVA LISB, AO)
Text: TAF FNHU 261100Z 2612/2624 18007KT 9000 FEW012 BKN025
Forecast period: 1200 to 2100 UTC 26 March 2019
Forecast type: FROM: standard forecast or significant change
Winds: from the S (180 degrees) at 8 MPH (7 knots; 3.6 m/s)
Visibility: 6 miles (9 km)
Ceiling: 2500 feet AGL
Clouds: few clouds at 1200 feet AGL
broken clouds at 2500 feet AGL
Weather: no significant weather forecast for this period
Text: TEMPO 2612/2616 24007KT 5000 -DZRA SCT015 FEW023CB BKN030
Forecast period: 1200 to 1600 UTC 26 March 2019
Forecast type: TEMPORARY: The following changes expected for less than half the time period
Winds: from the WSW (240 degrees) at 8 MPH (7 knots; 3.6 m/s)
Visibility: 3 miles (5 km)
Ceiling: 3000 feet AGL
Clouds: scattered clouds at 1500 feet AGL
few clouds at 2300 feet AGL
broken clouds at 3000 feet AGL
Weather: -DZ -RA  (light drizzle, light rain)
Text: BECMG 2621/2623 28004KT
Forecast period: 2100 UTC 26 March 2019 to 0000 UTC 27 March 2019
Forecast type: BECOMING: Conditions expected to become as follows by 2300 UTC 26 March 2019
Winds: from the W (280 degrees) at 5 MPH (4 knots; 2.1 m/s)
Visibility: 6 miles (9 km)
Ceiling: 2500 feet AGL
Clouds: few clouds at 1200 feet AGL
broken clouds at 2500 feet AGL
Weather: no significant weather forecast for this period